Hlavní strana
METAR-TAF:

METAR-TAF

Letiště :

Bamako, Mali

zeměpisná šířka: 12-32N, zeměpisná délka: 007-57W, výška: 380 m

Aktuální stav počasí

Zpráva byla vytvořena před 51 minutami, v 03:00 UTC
Východní vítr 6 kt
Teplota 26°C
Vlhkost vzduchu 15%
Tlak 1013 hPa
Viditelnost 10 km a více
Žádná oblačnost pod 1500 m, nevyskytují se cumulonimby.

METAR: GABS 170300Z 08006KT CAVOK 26/M03 Q1013 NOSIG

Čas: 03:51 (03:51 UTC)

Předpověď počasí

Zpráva byla vytvořena před 4 hodinami a 51 minutami, v 23:00 UTC
Předpověď platná od 17 v 00 UTC do 18 v 06 UTC
Jihojihovýchodní vítr 8 kt
Viditelnost: 8000 m

TAF: GABS 162300Z 1700/1806 16008KT 8000 NSC

Stav a předpovědi počasí z více než 4 000 letišť (zprávy METAR a TAF).

Červené a žluté tečky na mapě představují dostupné meteorologické stanice.

Když kurzor umístíte na tečku, zobrazí se název stanice.

Pak kliknutím zobrazíte stav a předpověď počasí.

Chcete-li změnit mapu, kliknutím na zelené tlačítko se znaménkem +mapu přiblížíte, kliknutím na zelené tlačítko se znaménkem – mapu oddálíte a kliknutím na zelené šipky přejdete na sousední mapy.


METAR-TAF: